createdAt,value
2023-03-16T00:02:08.089Z,-0.70
2023-03-16T00:04:37.457Z,-0.70
2023-03-16T00:07:05.838Z,-0.70
2023-03-16T00:09:33.834Z,-0.70
2023-03-16T00:12:04.105Z,-0.80
2023-03-16T00:14:35.649Z,-0.80
2023-03-16T00:17:06.177Z,-0.80
2023-03-16T00:19:35.140Z,-0.90
2023-03-16T00:22:03.140Z,-0.90
2023-03-16T00:24:31.922Z,-0.90
2023-03-16T00:26:59.833Z,-0.90
2023-03-16T00:29:27.759Z,-0.90
2023-03-16T00:31:57.065Z,-0.90
2023-03-16T00:34:25.537Z,-0.90
2023-03-16T00:36:55.243Z,-0.90
2023-03-16T00:39:23.532Z,-0.90
2023-03-16T00:41:51.475Z,-1.00
2023-03-16T00:44:19.466Z,-1.00
2023-03-16T00:46:47.384Z,-1.00
2023-03-16T00:49:16.629Z,-1.00
2023-03-16T00:51:46.263Z,-1.00
2023-03-16T00:54:14.249Z,-1.00
2023-03-16T00:56:43.024Z,-1.10
2023-03-16T00:59:12.978Z,-1.10
2023-03-16T01:01:41.950Z,-1.10
2023-03-16T01:04:10.906Z,-1.20
2023-03-16T01:06:40.775Z,-1.20
2023-03-16T01:09:09.661Z,-1.20
2023-03-16T01:11:37.800Z,-1.20
2023-03-16T01:14:07.710Z,-1.20
2023-03-16T01:16:35.786Z,-1.20
2023-03-16T01:19:04.249Z,-1.20
2023-03-16T01:21:33.712Z,-1.30
2023-03-16T01:24:04.077Z,-1.30
2023-03-16T01:26:32.315Z,-1.30
2023-03-16T01:29:00.383Z,-1.30
2023-03-16T01:31:29.348Z,-1.40
2023-03-16T01:33:57.747Z,-1.30
2023-03-16T01:36:29.161Z,-1.40
2023-03-16T01:39:06.801Z,-1.40
2023-03-16T01:41:43.024Z,-1.40
2023-03-16T01:44:14.877Z,-1.40
2023-03-16T01:46:44.364Z,-1.50
2023-03-16T01:49:15.399Z,-1.50
2023-03-16T01:51:50.786Z,-1.50
2023-03-16T01:54:27.432Z,-1.50
2023-03-16T01:57:01.286Z,-1.50
2023-03-16T01:59:32.880Z,-1.50
2023-03-16T02:02:02.661Z,-1.50
2023-03-16T02:04:52.172Z,-1.50
2023-03-16T02:07:25.421Z,-1.50
2023-03-16T02:09:58.617Z,-1.50
2023-03-16T02:12:26.713Z,-1.60
2023-03-16T02:14:57.173Z,-1.60
2023-03-16T02:17:28.229Z,-1.60
2023-03-16T02:20:11.128Z,-1.60
2023-03-16T02:22:44.981Z,-1.70
2023-03-16T02:25:18.035Z,-1.70
2023-03-16T02:27:54.647Z,-1.70
2023-03-16T02:30:24.437Z,-1.70
2023-03-16T02:33:02.545Z,-1.80
2023-03-16T02:35:31.178Z,-1.80
2023-03-16T02:37:59.384Z,-1.80
2023-03-16T02:40:33.505Z,-1.80
2023-03-16T02:43:08.919Z,-1.80
2023-03-16T02:45:47.107Z,-1.80
2023-03-16T02:48:22.411Z,-1.80
2023-03-16T02:50:53.641Z,-1.80
2023-03-16T02:53:22.398Z,-1.80
2023-03-16T02:55:50.641Z,-1.80
2023-03-16T02:58:19.478Z,-1.80
2023-03-16T03:00:49.542Z,-1.80
2023-03-16T03:03:18.897Z,-1.80
2023-03-16T03:05:47.013Z,-1.80
2023-03-16T03:08:15.490Z,-1.90
2023-03-16T03:10:44.133Z,-1.80
2023-03-16T03:13:12.304Z,-1.90
2023-03-16T03:15:41.176Z,-1.90
2023-03-16T03:18:14.567Z,-1.90
2023-03-16T03:20:43.048Z,-1.90
2023-03-16T03:23:11.637Z,-1.90
2023-03-16T03:25:39.629Z,-2.00
2023-03-16T03:28:08.408Z,-2.00
2023-03-16T03:30:37.091Z,-2.00
2023-03-16T03:33:06.301Z,-2.00
2023-03-16T03:35:35.666Z,-2.00
2023-03-16T03:38:03.756Z,-2.00
2023-03-16T03:40:32.011Z,-2.00
2023-03-16T03:43:03.525Z,-2.00
2023-03-16T03:45:33.865Z,-2.00
2023-03-16T03:48:01.976Z,-2.00
2023-03-16T03:50:30.300Z,-2.00
2023-03-16T03:53:21.098Z,-2.00
2023-03-16T03:56:15.431Z,-2.00
2023-03-16T03:58:43.407Z,-2.10
2023-03-16T04:01:13.915Z,-2.10
2023-03-16T04:03:44.800Z,-2.10
2023-03-16T04:06:15.349Z,-2.10
2023-03-16T04:08:44.901Z,-2.10
2023-03-16T04:11:18.911Z,-2.10
2023-03-16T04:13:47.102Z,-2.10
2023-03-16T04:16:16.314Z,-2.10
2023-03-16T04:18:46.676Z,-2.10
2023-03-16T04:21:17.012Z,-2.20
2023-03-16T04:23:49.578Z,-2.10
2023-03-16T04:26:18.315Z,-2.20
2023-03-16T04:28:48.916Z,-2.20
2023-03-16T04:31:19.896Z,-2.20
2023-03-16T04:33:48.869Z,-2.20
2023-03-16T04:36:17.061Z,-2.20
2023-03-16T04:38:45.715Z,-2.20
2023-03-16T04:41:15.654Z,-2.20
2023-03-16T04:43:51.715Z,-2.20
2023-03-16T04:46:22.718Z,-2.20
2023-03-16T04:48:50.929Z,-2.20
2023-03-16T04:51:18.928Z,-2.20
2023-03-16T04:53:59.307Z,-2.20
2023-03-16T04:56:35.587Z,-2.20
2023-03-16T04:59:08.619Z,-2.20
2023-03-16T05:01:46.209Z,-2.20
2023-03-16T05:04:19.558Z,-2.10
2023-03-16T05:06:48.533Z,-2.10
2023-03-16T05:09:18.111Z,-2.10
2023-03-16T05:11:47.453Z,-2.10
2023-03-16T05:14:15.836Z,-2.10
2023-03-16T05:16:56.561Z,-2.00
2023-03-16T05:19:24.697Z,-2.00
2023-03-16T05:21:52.657Z,-2.00
2023-03-16T05:24:20.642Z,-2.00
2023-03-16T05:26:50.281Z,-2.00
2023-03-16T05:29:21.555Z,-1.90
2023-03-16T05:31:51.084Z,-1.90
2023-03-16T05:34:22.587Z,-1.80
2023-03-16T05:36:52.444Z,-1.80
2023-03-16T05:39:23.412Z,-1.70
2023-03-16T05:41:55.072Z,-1.70
2023-03-16T05:44:37.261Z,-1.70
2023-03-16T05:47:23.887Z,-1.60
2023-03-16T05:49:56.734Z,-1.50
2023-03-16T05:52:34.219Z,-1.50
2023-03-16T05:55:10.423Z,-1.50
2023-03-16T05:57:39.964Z,-1.40
2023-03-16T06:00:14.493Z,-1.40
2023-03-16T06:02:51.208Z,-1.30
2023-03-16T06:05:21.777Z,-1.30
2023-03-16T06:07:51.777Z,-1.20
2023-03-16T06:10:20.532Z,-1.20
2023-03-16T06:12:57.111Z,-1.10
2023-03-16T06:15:30.403Z,-1.00
2023-03-16T06:18:01.282Z,-0.90
2023-03-16T06:20:30.358Z,-0.80
2023-03-16T06:22:58.792Z,-0.80
2023-03-16T06:25:27.657Z,-0.70
2023-03-16T06:27:57.722Z,-0.60
2023-03-16T06:30:26.734Z,-0.50
2023-03-16T06:32:54.909Z,-0.40
2023-03-16T06:35:23.111Z,-0.20
2023-03-16T06:38:06.091Z,-0.10
2023-03-16T06:40:57.273Z,0.20
2023-03-16T06:43:26.948Z,0.60
2023-03-16T06:45:55.697Z,1.00
2023-03-16T06:48:24.276Z,1.40
2023-03-16T06:50:52.272Z,1.60
2023-03-16T06:53:25.047Z,1.80
2023-03-16T06:55:54.529Z,2.00
2023-03-16T06:58:22.588Z,2.10
2023-03-16T07:00:53.937Z,2.30
2023-03-16T07:03:22.171Z,2.50
2023-03-16T07:05:56.751Z,2.50
2023-03-16T07:08:24.811Z,2.60
2023-03-16T07:10:54.483Z,2.90
2023-03-16T07:13:22.651Z,3.10
2023-03-16T07:15:53.261Z,3.10
2023-03-16T07:18:23.084Z,3.10
2023-03-16T07:20:51.776Z,3.10
2023-03-16T07:23:19.882Z,3.00
2023-03-16T07:25:48.051Z,3.10
2023-03-16T07:28:18.498Z,3.10
2023-03-16T07:31:02.399Z,3.10
2023-03-16T07:33:35.464Z,3.20
2023-03-16T07:36:06.772Z,3.20
2023-03-16T07:38:41.619Z,3.30
2023-03-16T07:41:09.909Z,3.20
2023-03-16T07:43:38.777Z,3.20
2023-03-16T07:46:13.579Z,3.20
2023-03-16T07:48:44.048Z,3.30
2023-03-16T07:51:14.808Z,3.40
2023-03-16T07:53:46.726Z,3.50
2023-03-16T07:56:19.464Z,3.60
2023-03-16T07:58:52.374Z,3.70
2023-03-16T08:01:20.537Z,3.70
2023-03-16T08:03:51.176Z,3.70
2023-03-16T08:06:19.496Z,4.00
2023-03-16T08:08:47.468Z,4.00
2023-03-16T08:11:25.241Z,4.10
2023-03-16T08:14:02.713Z,4.20
2023-03-16T08:16:49.309Z,4.40
2023-03-16T08:19:20.263Z,4.50
2023-03-16T08:22:01.135Z,4.60
2023-03-16T08:24:34.414Z,4.80
2023-03-16T08:27:04.601Z,4.90
2023-03-16T08:29:34.428Z,5.00
2023-03-16T08:32:03.751Z,5.10
2023-03-16T08:34:39.955Z,5.20
2023-03-16T08:37:09.769Z,5.40
2023-03-16T08:39:37.932Z,5.60
2023-03-16T08:42:10.589Z,5.90
2023-03-16T08:44:45.732Z,6.00
2023-03-16T08:47:14.275Z,6.20
2023-03-16T08:49:45.926Z,6.20
2023-03-16T08:52:16.660Z,6.30
2023-03-16T08:54:59.728Z,6.20
2023-03-16T08:57:29.702Z,6.30
2023-03-16T08:59:57.656Z,6.00
2023-03-16T09:02:25.703Z,6.20
2023-03-16T09:04:56.252Z,6.50
2023-03-16T09:07:24.236Z,6.60
2023-03-16T09:09:52.721Z,6.80
2023-03-16T09:12:22.258Z,7.20
2023-03-16T09:14:50.268Z,7.30
2023-03-16T09:17:18.685Z,7.50
2023-03-16T09:19:52.212Z,7.60
2023-03-16T09:22:23.130Z,7.80
2023-03-16T09:24:51.281Z,8.10
2023-03-16T09:27:20.504Z,8.10
2023-03-16T09:29:49.472Z,8.20
2023-03-16T09:32:17.415Z,8.20
2023-03-16T09:34:45.833Z,8.20
2023-03-16T09:37:15.506Z,8.00
2023-03-16T09:39:45.654Z,7.70
2023-03-16T09:42:20.783Z,7.70
2023-03-16T09:45:05.447Z,7.50
2023-03-16T09:47:36.162Z,7.40
2023-03-16T09:50:08.531Z,6.90
2023-03-16T09:52:44.937Z,6.50
2023-03-16T09:55:27.106Z,6.30
2023-03-16T09:57:56.324Z,6.10
2023-03-16T10:00:26.500Z,6.00
2023-03-16T10:03:11.762Z,6.00
2023-03-16T10:05:40.943Z,5.90
2023-03-16T10:08:15.072Z,6.20
2023-03-16T10:11:11.593Z,6.60
2023-03-16T10:13:45.661Z,7.20
2023-03-16T10:16:18.418Z,7.30
2023-03-16T10:18:50.242Z,8.10
2023-03-16T10:21:19.948Z,9.10
2023-03-16T10:23:49.723Z,9.80
2023-03-16T10:26:23.619Z,10.30
2023-03-16T10:28:52.969Z,10.80
2023-03-16T10:31:24.450Z,10.50
2023-03-16T10:33:59.449Z,10.00
2023-03-16T10:36:33.423Z,9.80
2023-03-16T10:39:04.986Z,9.80
2023-03-16T10:41:36.672Z,9.20
2023-03-16T10:44:12.094Z,9.00
2023-03-16T10:46:42.062Z,8.70
2023-03-16T10:49:23.428Z,8.10
2023-03-16T10:51:52.231Z,7.50
2023-03-16T10:54:31.689Z,7.20
2023-03-16T10:57:02.944Z,6.80
2023-03-16T10:59:34.325Z,6.60
2023-03-16T11:02:05.411Z,6.40
2023-03-16T11:04:34.227Z,6.40
2023-03-16T11:07:02.257Z,6.50
2023-03-16T11:09:34.452Z,6.60
2023-03-16T11:12:15.381Z,6.70
2023-03-16T11:14:45.818Z,6.70
2023-03-16T11:17:17.973Z,6.80
2023-03-16T11:19:52.590Z,6.90
2023-03-16T11:22:23.125Z,6.80
2023-03-16T11:24:55.466Z,6.70
2023-03-16T11:27:27.779Z,6.80
2023-03-16T11:30:05.968Z,6.70
2023-03-16T11:32:37.391Z,6.90
2023-03-16T11:35:14.627Z,7.50
2023-03-16T11:38:00.357Z,7.60
2023-03-16T11:40:42.013Z,7.60
2023-03-16T11:43:25.016Z,7.50
2023-03-16T11:46:07.891Z,7.30
2023-03-16T11:48:40.897Z,7.30
2023-03-16T11:51:16.554Z,7.20
2023-03-16T11:53:51.978Z,7.00
2023-03-16T11:56:29.908Z,7.00
2023-03-16T11:59:22.614Z,6.80
2023-03-16T12:02:08.535Z,6.50
2023-03-16T12:04:59.700Z,6.50
2023-03-16T12:07:47.825Z,6.50
2023-03-16T12:10:26.968Z,6.50
2023-03-16T12:13:05.052Z,6.50
2023-03-16T12:15:44.834Z,6.50
2023-03-16T12:18:21.735Z,6.60
2023-03-16T12:20:55.133Z,6.60
2023-03-16T12:23:29.044Z,6.60
2023-03-16T12:25:59.812Z,6.60
2023-03-16T12:28:29.957Z,6.70
2023-03-16T12:31:09.904Z,6.60
2023-03-16T12:33:54.904Z,6.70
2023-03-16T12:37:02.506Z,6.70
2023-03-16T12:40:22.177Z,6.60
2023-03-16T12:43:01.342Z,6.60
2023-03-16T12:45:37.406Z,6.50
2023-03-16T12:48:17.123Z,6.40
2023-03-16T12:50:51.675Z,6.40
2023-03-16T12:53:43.423Z,6.40
2023-03-16T12:56:13.220Z,6.30
2023-03-16T12:58:45.525Z,6.30
2023-03-16T13:01:16.900Z,6.20
2023-03-16T13:03:50.417Z,6.10
2023-03-16T13:06:20.646Z,6.10
2023-03-16T13:08:52.642Z,6.10
2023-03-16T13:11:20.760Z,6.10
2023-03-16T13:13:52.167Z,6.10
2023-03-16T13:16:29.072Z,6.10
2023-03-16T13:18:59.066Z,6.10
2023-03-16T13:21:37.885Z,6.10
2023-03-16T13:24:26.512Z,6.10
2023-03-16T13:26:59.175Z,6.10
2023-03-16T13:29:28.696Z,6.20
2023-03-16T13:31:59.080Z,6.50
2023-03-16T13:34:31.827Z,6.70
2023-03-16T13:37:01.487Z,6.90
2023-03-16T13:39:31.097Z,7.00
2023-03-16T13:42:01.775Z,7.00
2023-03-16T13:44:30.518Z,7.00
2023-03-16T13:47:03.324Z,7.00
2023-03-16T13:49:32.671Z,6.90
2023-03-16T13:52:00.821Z,6.90
2023-03-16T13:54:31.742Z,6.80
2023-03-16T13:57:02.901Z,6.60
2023-03-16T13:59:31.462Z,6.50
2023-03-16T14:02:01.896Z,6.50
2023-03-16T14:04:33.957Z,6.50
2023-03-16T14:07:03.802Z,6.50
2023-03-16T14:09:35.013Z,6.50
2023-03-16T14:12:03.658Z,6.50
2023-03-16T14:14:33.446Z,6.50
2023-03-16T14:17:05.356Z,6.50
2023-03-16T14:19:42.411Z,6.40
2023-03-16T14:22:18.880Z,6.40
2023-03-16T14:24:54.490Z,6.40
2023-03-16T14:27:27.347Z,6.40
2023-03-16T14:30:00.532Z,6.30
2023-03-16T14:32:30.166Z,6.20
2023-03-16T14:35:15.137Z,6.30
2023-03-16T14:37:43.645Z,6.20
2023-03-16T14:40:25.356Z,6.10
2023-03-16T14:42:54.369Z,6.10
2023-03-16T14:45:22.706Z,6.00
2023-03-16T14:47:53.735Z,6.00
2023-03-16T14:50:26.829Z,5.90
2023-03-16T14:52:57.478Z,5.90
2023-03-16T14:55:25.869Z,5.90
2023-03-16T14:57:53.993Z,5.90
2023-03-16T15:00:23.280Z,6.00
2023-03-16T15:03:02.490Z,6.00
2023-03-16T15:05:36.785Z,6.00
2023-03-16T15:08:06.988Z,6.10
2023-03-16T15:10:36.787Z,6.10
2023-03-16T15:13:14.067Z,6.10
2023-03-16T15:15:42.953Z,6.20
2023-03-16T15:18:11.222Z,6.10
2023-03-16T15:20:44.331Z,6.20
2023-03-16T15:23:15.713Z,6.20
2023-03-16T15:25:45.798Z,6.20
2023-03-16T15:28:17.292Z,6.10
2023-03-16T15:30:47.270Z,6.10
2023-03-16T15:33:15.818Z,6.00
2023-03-16T15:35:46.776Z,6.00
2023-03-16T15:38:17.860Z,5.90
2023-03-16T15:40:47.841Z,5.80
2023-03-16T15:43:18.192Z,5.80
2023-03-16T15:45:47.149Z,5.80
2023-03-16T15:48:16.265Z,5.80
2023-03-16T15:50:51.122Z,5.80
2023-03-16T15:53:30.810Z,5.80
2023-03-16T15:56:03.117Z,5.80
2023-03-16T15:58:32.501Z,5.80
2023-03-16T16:01:03.632Z,5.80
2023-03-16T16:03:33.788Z,5.80
2023-03-16T16:06:03.111Z,5.70
2023-03-16T16:08:31.499Z,5.60
2023-03-16T16:10:59.889Z,5.50
2023-03-16T16:13:43.090Z,5.50
2023-03-16T16:16:14.511Z,5.30
2023-03-16T16:18:42.785Z,5.20
2023-03-16T16:21:16.895Z,5.00
2023-03-16T16:23:44.848Z,4.90
2023-03-16T16:26:26.310Z,4.70
2023-03-16T16:28:58.436Z,4.60
2023-03-16T16:31:29.037Z,4.40
2023-03-16T16:33:57.547Z,4.20
2023-03-16T16:36:27.606Z,4.10
2023-03-16T16:38:57.072Z,4.00
2023-03-16T16:41:29.787Z,3.90
2023-03-16T16:43:59.172Z,3.80
2023-03-16T16:46:28.706Z,3.70
2023-03-16T16:49:01.676Z,3.50
2023-03-16T16:51:31.273Z,3.50
2023-03-16T16:54:02.059Z,3.40
2023-03-16T16:56:31.876Z,3.30
2023-03-16T16:59:02.640Z,3.20
2023-03-16T17:01:34.609Z,3.10
2023-03-16T17:04:03.731Z,3.00
2023-03-16T17:06:33.031Z,3.00
2023-03-16T17:09:01.037Z,2.80
2023-03-16T17:11:31.569Z,2.80
2023-03-16T17:14:01.837Z,2.70
2023-03-16T17:16:32.149Z,2.60
2023-03-16T17:19:00.370Z,2.50
2023-03-16T17:21:31.417Z,2.40
2023-03-16T17:24:01.520Z,2.40
2023-03-16T17:26:32.910Z,2.30
2023-03-16T17:29:03.303Z,2.20
2023-03-16T17:31:35.172Z,2.10
2023-03-16T17:34:07.446Z,2.10
2023-03-16T17:36:35.448Z,2.00
2023-03-16T17:39:07.810Z,1.90
2023-03-16T17:41:35.725Z,1.90
2023-03-16T17:44:06.982Z,1.80
2023-03-16T17:46:35.044Z,1.80
2023-03-16T17:49:03.172Z,1.70
2023-03-16T17:51:32.310Z,1.60
2023-03-16T17:54:00.225Z,1.60
2023-03-16T17:56:30.263Z,1.60
2023-03-16T17:58:58.792Z,1.50
2023-03-16T18:01:32.747Z,1.40
2023-03-16T18:04:00.899Z,1.40
2023-03-16T18:06:31.244Z,1.30
2023-03-16T18:08:59.482Z,1.30
2023-03-16T18:11:35.427Z,1.20
2023-03-16T18:14:05.186Z,1.20
2023-03-16T18:16:33.314Z,1.10
2023-03-16T18:19:05.872Z,1.10
2023-03-16T18:21:36.485Z,1.10
2023-03-16T18:24:06.818Z,1.00
2023-03-16T18:26:36.176Z,1.00
2023-03-16T18:29:05.848Z,1.00
2023-03-16T18:31:34.113Z,0.90
2023-03-16T18:34:06.103Z,0.90
2023-03-16T18:36:36.166Z,0.90
2023-03-16T18:39:07.541Z,0.80
2023-03-16T18:41:37.483Z,0.80
2023-03-16T18:44:17.266Z,0.80
2023-03-16T18:46:46.177Z,0.80
2023-03-16T18:49:19.804Z,0.70
2023-03-16T18:51:51.380Z,0.70
2023-03-16T18:54:22.871Z,0.70
2023-03-16T18:56:52.959Z,0.70
2023-03-16T18:59:21.558Z,0.70
2023-03-16T19:01:49.664Z,0.70
2023-03-16T19:04:22.553Z,0.70
2023-03-16T19:06:53.418Z,0.70
2023-03-16T19:09:24.066Z,0.70
2023-03-16T19:11:53.967Z,0.60
2023-03-16T19:14:24.540Z,0.60
2023-03-16T19:16:53.863Z,0.60
2023-03-16T19:19:23.325Z,0.60
2023-03-16T19:21:53.676Z,0.60
2023-03-16T19:24:25.858Z,0.60
2023-03-16T19:26:56.498Z,0.70
2023-03-16T19:29:30.153Z,0.70
2023-03-16T19:32:00.157Z,0.70
2023-03-16T19:34:28.368Z,0.70
2023-03-16T19:36:56.521Z,0.70
2023-03-16T19:39:24.665Z,0.80
2023-03-16T19:41:58.091Z,0.80
2023-03-16T19:44:28.317Z,0.80
2023-03-16T19:46:56.619Z,0.90
2023-03-16T19:49:27.014Z,0.90
2023-03-16T19:51:56.654Z,0.90
2023-03-16T19:54:26.730Z,0.90
2023-03-16T19:56:56.031Z,0.90
2023-03-16T19:59:30.188Z,0.90
2023-03-16T20:01:58.243Z,1.00
2023-03-16T20:04:27.736Z,1.00
2023-03-16T20:06:55.847Z,1.00
2023-03-16T20:09:23.996Z,1.00
2023-03-16T20:11:52.057Z,1.10
2023-03-16T20:14:22.614Z,1.10
2023-03-16T20:16:53.189Z,1.10
2023-03-16T20:19:22.315Z,1.10
2023-03-16T20:21:50.541Z,1.20
2023-03-16T20:24:20.679Z,1.20
2023-03-16T20:26:51.546Z,1.30
2023-03-16T20:29:24.886Z,1.30
2023-03-16T20:31:54.426Z,1.30
2023-03-16T20:34:24.508Z,1.30
2023-03-16T20:36:52.636Z,1.30
2023-03-16T20:39:20.960Z,1.30
2023-03-16T20:41:49.488Z,1.30
2023-03-16T20:44:20.560Z,1.40
2023-03-16T20:46:48.817Z,1.40
2023-03-16T20:49:32.420Z,1.40
2023-03-16T20:52:00.572Z,1.30
2023-03-16T20:54:28.590Z,1.40
2023-03-16T20:56:56.615Z,1.40
2023-03-16T20:59:27.438Z,1.40
2023-03-16T21:01:55.748Z,1.40
2023-03-16T21:04:28.198Z,1.40
2023-03-16T21:06:57.592Z,1.40
2023-03-16T21:09:25.668Z,1.30
2023-03-16T21:11:53.699Z,1.30
2023-03-16T21:14:23.799Z,1.20
2023-03-16T21:16:52.460Z,1.10
2023-03-16T21:19:22.818Z,1.00
2023-03-16T21:21:52.473Z,0.90
2023-03-16T21:24:21.160Z,0.80
2023-03-16T21:26:49.242Z,0.80
2023-03-16T21:29:21.220Z,0.70
2023-03-16T21:31:49.765Z,0.60
2023-03-16T21:34:24.151Z,0.60
2023-03-16T21:36:53.713Z,0.50
2023-03-16T21:39:24.977Z,0.50
2023-03-16T21:41:53.557Z,0.40
2023-03-16T21:44:21.874Z,0.40
2023-03-16T21:46:50.844Z,0.40
2023-03-16T21:49:19.714Z,0.30
2023-03-16T21:51:47.919Z,0.30
2023-03-16T21:54:17.991Z,0.20
2023-03-16T21:56:46.567Z,0.20
2023-03-16T21:59:14.522Z,0.20
2023-03-16T22:02:00.348Z,0.20
2023-03-16T22:04:29.475Z,0.20
2023-03-16T22:06:57.418Z,0.20
2023-03-16T22:09:30.092Z,0.20
2023-03-16T22:11:58.263Z,0.10
2023-03-16T22:14:27.198Z,0.10
2023-03-16T22:16:55.589Z,0.00
2023-03-16T22:19:24.755Z,-0.10
2023-03-16T22:21:52.773Z,0.00
2023-03-16T22:24:23.638Z,-0.10
2023-03-16T22:26:53.726Z,-0.30
2023-03-16T22:29:25.239Z,-0.30
2023-03-16T22:31:57.566Z,-0.30
2023-03-16T22:34:29.716Z,-0.40
2023-03-16T22:36:58.470Z,-0.40
2023-03-16T22:39:26.549Z,-0.60
2023-03-16T22:41:55.928Z,-0.70
2023-03-16T22:44:24.880Z,-0.70
2023-03-16T22:46:52.934Z,-0.70
2023-03-16T22:49:23.716Z,-0.80
2023-03-16T22:51:53.634Z,-0.80
2023-03-16T22:54:24.776Z,-0.80
2023-03-16T22:56:53.113Z,-0.90
2023-03-16T22:59:25.569Z,-0.90
2023-03-16T23:01:53.614Z,-0.90
2023-03-16T23:04:23.532Z,-0.90
2023-03-16T23:06:53.418Z,-0.90
2023-03-16T23:09:22.711Z,-1.00
2023-03-16T23:11:54.022Z,-1.00
2023-03-16T23:14:25.093Z,-1.00
2023-03-16T23:16:53.602Z,-1.00
2023-03-16T23:19:25.620Z,-1.10
2023-03-16T23:21:55.587Z,-1.10
2023-03-16T23:24:23.614Z,-1.10
2023-03-16T23:26:53.122Z,-1.10
2023-03-16T23:29:23.610Z,-1.10
2023-03-16T23:31:51.862Z,-1.10
2023-03-16T23:34:22.607Z,-1.10
2023-03-16T23:36:51.337Z,-1.10
2023-03-16T23:39:19.580Z,-1.10
2023-03-16T23:41:49.554Z,-1.10
2023-03-16T23:44:20.067Z,-1.10
2023-03-16T23:46:49.630Z,-1.10
2023-03-16T23:49:21.241Z,-1.10
2023-03-16T23:51:49.740Z,-1.10
2023-03-16T23:54:20.809Z,-1.10
2023-03-16T23:56:49.258Z,-1.10
2023-03-16T23:59:17.407Z,-1.20
